createdAt,value
2018-08-09T00:00:01.468Z,0
2018-08-09T00:01:02.060Z,0
2018-08-09T00:02:02.642Z,0
2018-08-09T00:03:03.228Z,0
2018-08-09T00:04:03.808Z,0
2018-08-09T00:05:04.398Z,0
2018-08-09T00:06:04.983Z,0
2018-08-09T00:07:05.609Z,0
2018-08-09T00:08:06.249Z,0
2018-08-09T00:09:06.881Z,0
2018-08-09T00:10:07.464Z,0
2018-08-09T00:11:08.100Z,0
2018-08-09T00:12:08.687Z,0
2018-08-09T00:13:09.271Z,0
2018-08-09T00:14:09.857Z,0
2018-08-09T00:15:10.445Z,0
2018-08-09T00:16:11.031Z,0
2018-08-09T00:17:11.610Z,0
2018-08-09T00:18:12.202Z,0
2018-08-09T00:19:12.835Z,0
2018-08-09T00:20:13.419Z,0
2018-08-09T00:21:14.005Z,0
2018-08-09T00:22:14.596Z,0
2018-08-09T00:23:15.223Z,0
2018-08-09T00:24:15.861Z,0
2018-08-09T00:25:16.452Z,0
2018-08-09T00:26:17.038Z,0
2018-08-09T00:27:17.620Z,0
2018-08-09T00:28:18.249Z,0
2018-08-09T00:29:18.830Z,0
2018-08-09T00:30:19.422Z,0
2018-08-09T00:31:20.159Z,0
2018-08-09T00:32:20.741Z,0
2018-08-09T00:33:21.326Z,0
2018-08-09T00:34:21.910Z,0
2018-08-09T00:35:22.549Z,0
2018-08-09T00:36:23.173Z,0
2018-08-09T00:37:23.761Z,0
2018-08-09T00:38:24.341Z,0
2018-08-09T00:39:24.940Z,0
2018-08-09T00:40:25.518Z,0
2018-08-09T00:41:26.098Z,0
2018-08-09T00:42:26.682Z,0
2018-08-09T00:43:27.265Z,0
2018-08-09T00:44:27.906Z,0
2018-08-09T00:45:28.488Z,0
2018-08-09T00:46:29.076Z,0
2018-08-09T00:47:29.712Z,0
2018-08-09T00:48:30.296Z,0
2018-08-09T00:49:30.931Z,0
2018-08-09T00:50:31.519Z,0
2018-08-09T00:51:32.105Z,0
2018-08-09T00:52:32.688Z,0
2018-08-09T00:53:33.277Z,0
2018-08-09T00:54:33.858Z,0
2018-08-09T00:55:34.448Z,0
2018-08-09T00:56:35.082Z,0
2018-08-09T00:57:35.666Z,0
2018-08-09T00:58:36.249Z,0
2018-08-09T00:59:36.884Z,0
2018-08-09T01:00:37.459Z,0
2018-08-09T01:01:38.045Z,0
2018-08-09T01:02:38.679Z,0
2018-08-09T01:03:39.264Z,0
2018-08-09T01:04:39.848Z,0
2018-08-09T01:05:40.483Z,0
2018-08-09T01:06:41.059Z,0
2018-08-09T01:07:41.693Z,0
2018-08-09T01:08:42.333Z,0
2018-08-09T01:09:42.924Z,0
2018-08-09T01:10:43.506Z,0
2018-08-09T01:11:44.102Z,0
2018-08-09T01:12:44.722Z,0
2018-08-09T01:13:45.309Z,0
2018-08-09T01:14:45.895Z,0
2018-08-09T01:15:46.481Z,0
2018-08-09T01:16:47.066Z,0
2018-08-09T01:17:47.653Z,0
2018-08-09T01:18:48.241Z,0
2018-08-09T01:19:48.872Z,0
2018-08-09T01:20:49.460Z,0
2018-08-09T01:21:50.050Z,0
2018-08-09T01:22:50.684Z,0
2018-08-09T01:23:51.265Z,0
2018-08-09T01:24:51.851Z,0
2018-08-09T01:25:52.431Z,0
2018-08-09T01:26:53.021Z,0
2018-08-09T01:27:53.602Z,0
2018-08-09T01:28:54.236Z,0
2018-08-09T01:29:54.816Z,0
2018-08-09T01:30:55.451Z,0
2018-08-09T01:31:56.044Z,0
2018-08-09T01:32:56.659Z,0
2018-08-09T01:33:57.213Z,0
2018-08-09T01:34:57.802Z,0
2018-08-09T01:35:58.387Z,0
2018-08-09T01:36:58.974Z,0
2018-08-09T01:37:59.606Z,0
2018-08-09T01:39:00.193Z,0
2018-08-09T01:40:00.779Z,0
2018-08-09T01:41:01.365Z,0
2018-08-09T01:42:01.947Z,0
2018-08-09T01:43:02.532Z,0
2018-08-09T01:44:03.169Z,0
2018-08-09T01:45:03.752Z,0
2018-08-09T01:46:04.339Z,0
2018-08-09T01:47:04.919Z,0
2018-08-09T01:48:05.505Z,0
2018-08-09T01:49:06.089Z,0
2018-08-09T01:50:06.727Z,0
2018-08-09T01:51:07.314Z,0
2018-08-09T01:52:07.895Z,0
2018-08-09T01:53:08.483Z,0
2018-08-09T01:54:09.069Z,0
2018-08-09T01:55:09.655Z,0
2018-08-09T01:56:10.240Z,0
2018-08-09T01:57:10.827Z,0
2018-08-09T01:58:11.407Z,0
2018-08-09T01:59:11.988Z,0
2018-08-09T02:00:12.618Z,0
2018-08-09T02:01:13.198Z,0
2018-08-09T02:02:13.786Z,0
2018-08-09T02:03:14.416Z,0
2018-08-09T02:04:15.000Z,0
2018-08-09T02:05:15.636Z,0
2018-08-09T02:06:16.233Z,0
2018-08-09T02:07:16.861Z,0
2018-08-09T02:08:17.445Z,0
2018-08-09T02:09:18.033Z,0
2018-08-09T02:10:18.619Z,0
2018-08-09T02:11:19.203Z,0
2018-08-09T02:12:19.791Z,0
2018-08-09T02:13:20.375Z,0
2018-08-09T02:14:20.958Z,0
2018-08-09T02:15:21.540Z,0
2018-08-09T02:16:22.129Z,0
2018-08-09T02:17:22.712Z,0
2018-08-09T02:18:23.298Z,0
2018-08-09T02:19:23.934Z,0
2018-08-09T02:20:24.570Z,0
2018-08-09T02:21:25.146Z,0
2018-08-09T02:22:25.730Z,0
2018-08-09T02:23:26.313Z,0
2018-08-09T02:24:26.945Z,0
2018-08-09T02:25:27.533Z,0
2018-08-09T02:26:28.112Z,0
2018-08-09T02:27:28.699Z,0
2018-08-09T02:28:29.285Z,0
2018-08-09T02:29:29.864Z,0
2018-08-09T02:30:30.452Z,0
2018-08-09T02:31:31.040Z,0
2018-08-09T02:32:31.625Z,0
2018-08-09T02:33:32.261Z,0
2018-08-09T02:34:32.847Z,0
2018-08-09T02:35:33.426Z,0
2018-08-09T02:36:34.013Z,0
2018-08-09T02:37:34.647Z,0
2018-08-09T02:38:35.234Z,0
2018-08-09T02:39:35.824Z,0
2018-08-09T02:40:36.454Z,0
2018-08-09T02:41:37.187Z,0
2018-08-09T02:42:37.769Z,0
2018-08-09T02:43:38.354Z,0
2018-08-09T02:44:38.940Z,0
2018-08-09T02:45:39.530Z,0
2018-08-09T02:46:40.163Z,0
2018-08-09T02:47:40.696Z,0
2018-08-09T02:48:41.282Z,0
2018-08-09T02:49:41.868Z,0
2018-08-09T02:50:42.454Z,0
2018-08-09T02:51:43.040Z,0
2018-08-09T02:52:43.624Z,0
2018-08-09T02:53:44.209Z,0
2018-08-09T02:54:44.796Z,0
2018-08-09T02:55:45.373Z,0
2018-08-09T02:56:45.961Z,0
2018-08-09T02:57:46.592Z,0
2018-08-09T02:58:47.224Z,0
2018-08-09T02:59:47.866Z,0
2018-08-09T03:00:48.451Z,0
2018-08-09T03:01:49.034Z,0
2018-08-09T03:02:49.624Z,0
2018-08-09T03:03:50.202Z,0
2018-08-09T03:04:50.831Z,0
2018-08-09T03:05:51.417Z,0
2018-08-09T03:06:51.999Z,0
2018-08-09T03:07:52.583Z,0
2018-08-09T03:08:53.178Z,0
2018-08-09T03:09:53.755Z,0
2018-08-09T03:10:54.335Z,0
2018-08-09T03:11:54.966Z,0
2018-08-09T03:12:55.552Z,0
2018-08-09T03:13:56.186Z,0
2018-08-09T03:14:56.823Z,0
2018-08-09T03:15:57.403Z,0
2018-08-09T03:16:57.993Z,0
2018-08-09T03:17:58.579Z,0
2018-08-09T03:18:59.166Z,0
2018-08-09T03:19:59.746Z,0
2018-08-09T03:21:05.538Z,0
2018-08-09T03:22:06.124Z,0
2018-08-09T03:23:06.755Z,0
2018-08-09T03:24:07.341Z,0
2018-08-09T03:25:07.925Z,0
2018-08-09T03:26:08.507Z,0
2018-08-09T03:27:09.147Z,0
2018-08-09T03:28:09.734Z,0
2018-08-09T03:29:10.317Z,0
2018-08-09T03:30:10.943Z,0
2018-08-09T03:31:11.531Z,0
2018-08-09T03:32:12.116Z,0
2018-08-09T03:33:12.896Z,0
2018-08-09T03:34:13.491Z,0
2018-08-09T03:35:14.070Z,0
2018-08-09T03:36:14.707Z,0
2018-08-09T03:37:15.288Z,0
2018-08-09T03:38:15.878Z,0
2018-08-09T03:39:16.458Z,0
2018-08-09T03:40:17.050Z,0
2018-08-09T03:41:17.633Z,0
2018-08-09T03:42:18.219Z,0
2018-08-09T03:43:18.798Z,0
2018-08-09T03:44:19.481Z,0
2018-08-09T03:45:20.066Z,0
2018-08-09T03:46:20.649Z,0
2018-08-09T03:47:21.235Z,0
2018-08-09T03:48:21.860Z,0
2018-08-09T03:49:22.444Z,0
2018-08-09T03:50:23.127Z,0
2018-08-09T03:51:23.716Z,0
2018-08-09T03:52:24.349Z,0
2018-08-09T03:53:24.937Z,0
2018-08-09T03:54:25.518Z,0
2018-08-09T03:55:26.100Z,0
2018-08-09T03:56:26.686Z,0
2018-08-09T03:57:27.267Z,0
2018-08-09T03:58:27.908Z,0
2018-08-09T03:59:28.543Z,0
2018-08-09T04:00:29.125Z,0
2018-08-09T04:01:29.713Z,0
2018-08-09T04:02:30.299Z,0
2018-08-09T04:03:30.882Z,0
2018-08-09T04:04:31.470Z,0
2018-08-09T04:05:32.052Z,0
2018-08-09T04:06:32.639Z,0
2018-08-09T04:07:33.274Z,0
2018-08-09T04:08:33.858Z,0
2018-08-09T04:09:34.481Z,0
2018-08-09T04:10:35.062Z,0
2018-08-09T04:11:35.636Z,0
2018-08-09T04:12:36.197Z,0
2018-08-09T04:13:36.829Z,0
2018-08-09T04:14:37.414Z,0
2018-08-09T04:15:38.047Z,0
2018-08-09T04:16:38.638Z,0
2018-08-09T04:17:39.317Z,0
2018-08-09T04:18:39.905Z,0
2018-08-09T04:19:40.487Z,0
2018-08-09T04:20:41.074Z,0
2018-08-09T04:21:41.707Z,0
2018-08-09T04:22:42.296Z,0
2018-08-09T04:23:42.884Z,0
2018-08-09T04:24:43.519Z,0
2018-08-09T04:25:44.098Z,0
2018-08-09T04:26:44.688Z,0
2018-08-09T04:27:45.318Z,0
2018-08-09T04:28:45.905Z,0
2018-08-09T04:29:46.493Z,0
2018-08-09T04:30:47.075Z,0
2018-08-09T04:31:47.711Z,0
2018-08-09T04:32:48.295Z,0
2018-08-09T04:33:48.922Z,0
2018-08-09T04:34:49.504Z,0
2018-08-09T04:35:50.089Z,0
2018-08-09T04:36:50.668Z,0
2018-08-09T04:37:51.309Z,0
2018-08-09T04:38:51.890Z,0
2018-08-09T04:39:52.468Z,0
2018-08-09T04:40:53.103Z,0
2018-08-09T04:41:53.681Z,0
2018-08-09T04:42:54.260Z,0
2018-08-09T04:43:54.850Z,0
2018-08-09T04:44:55.426Z,0
2018-08-09T04:45:56.011Z,0
2018-08-09T04:46:56.595Z,0
2018-08-09T04:47:57.186Z,0
2018-08-09T04:48:57.770Z,0
2018-08-09T04:49:58.385Z,0
2018-08-09T04:50:58.982Z,0
2018-08-09T04:51:59.620Z,0
2018-08-09T04:53:00.200Z,0
2018-08-09T04:54:00.787Z,0
2018-08-09T04:55:01.425Z,0
2018-08-09T04:56:02.005Z,0
2018-08-09T04:57:02.631Z,0
2018-08-09T04:58:03.282Z,0
2018-08-09T04:59:03.850Z,0
2018-08-09T05:00:04.437Z,0
2018-08-09T05:01:05.067Z,0
2018-08-09T05:02:05.654Z,0
2018-08-09T05:03:06.244Z,0
2018-08-09T05:04:06.823Z,0
2018-08-09T05:05:07.403Z,0
2018-08-09T05:06:07.983Z,0
2018-08-09T05:07:08.572Z,0
2018-08-09T05:08:09.203Z,0
2018-08-09T05:09:09.790Z,0
2018-08-09T05:10:10.395Z,0
2018-08-09T05:11:10.961Z,0
2018-08-09T05:12:11.545Z,0
2018-08-09T05:13:12.178Z,0
2018-08-09T05:14:12.767Z,0
2018-08-09T05:15:13.351Z,0
2018-08-09T05:16:13.971Z,0
2018-08-09T05:17:14.610Z,0
2018-08-09T05:18:15.189Z,0
2018-08-09T05:19:15.772Z,0
2018-08-09T05:20:16.361Z,0
2018-08-09T05:21:16.939Z,0
2018-08-09T05:22:17.529Z,0
2018-08-09T05:23:18.112Z,0
2018-08-09T05:24:18.699Z,0
2018-08-09T05:25:19.283Z,0
2018-08-09T05:26:19.950Z,0
2018-08-09T05:27:20.509Z,0
2018-08-09T05:28:21.094Z,0
2018-08-09T05:29:21.682Z,0
2018-08-09T05:30:22.370Z,0
2018-08-09T05:31:22.951Z,0
2018-08-09T05:32:23.539Z,0
2018-08-09T05:33:24.323Z,0
2018-08-09T05:34:24.902Z,0
2018-08-09T05:35:25.484Z,0
2018-08-09T05:36:26.074Z,0
2018-08-09T05:37:26.657Z,0
2018-08-09T05:38:27.247Z,0
2018-08-09T05:39:27.873Z,0
2018-08-09T05:40:28.454Z,0
2018-08-09T05:41:29.085Z,0
2018-08-09T05:42:29.675Z,0
2018-08-09T05:43:30.254Z,0
2018-08-09T05:44:30.843Z,0
2018-08-09T05:45:31.479Z,0
2018-08-09T05:46:32.064Z,0
2018-08-09T05:47:32.646Z,0
2018-08-09T05:48:33.285Z,0
2018-08-09T05:49:33.873Z,0
2018-08-09T05:50:34.456Z,0
2018-08-09T05:51:35.041Z,0
2018-08-09T05:52:35.644Z,0
2018-08-09T05:53:36.212Z,0
2018-08-09T05:54:36.799Z,0
2018-08-09T05:55:37.381Z,0
2018-08-09T05:56:37.966Z,0
2018-08-09T05:57:38.552Z,0
2018-08-09T05:58:39.180Z,0
2018-08-09T05:59:39.764Z,0
2018-08-09T06:00:40.355Z,0
2018-08-09T06:01:40.987Z,0
2018-08-09T06:02:41.574Z,0
2018-08-09T06:03:42.202Z,0
2018-08-09T06:04:42.841Z,0
2018-08-09T06:05:43.491Z,0
2018-08-09T06:06:44.065Z,0
2018-08-09T06:07:44.647Z,0
2018-08-09T06:08:45.232Z,0
2018-08-09T06:09:45.816Z,0
2018-08-09T06:10:46.403Z,0
2018-08-09T06:11:47.034Z,0
2018-08-09T06:12:47.671Z,0
2018-08-09T06:13:48.256Z,0
2018-08-09T06:14:48.836Z,0
2018-08-09T06:15:49.417Z,0
2018-08-09T06:16:50.004Z,0
2018-08-09T06:17:50.589Z,0
2018-08-09T06:18:51.189Z,0
2018-08-09T06:19:51.761Z,0
2018-08-09T06:20:52.394Z,0
2018-08-09T06:21:53.030Z,0
2018-08-09T06:22:53.662Z,0
2018-08-09T06:23:54.238Z,0
2018-08-09T06:24:54.825Z,0
2018-08-09T06:25:55.410Z,0
2018-08-09T06:26:55.999Z,0
2018-08-09T06:27:56.583Z,0
2018-08-09T06:28:57.170Z,0
2018-08-09T06:29:57.810Z,0
2018-08-09T06:30:58.385Z,0
2018-08-09T06:31:59.015Z,0
2018-08-09T06:32:59.602Z,0
2018-08-09T06:34:00.189Z,0
2018-08-09T06:35:00.771Z,0
2018-08-09T06:36:01.359Z,0
2018-08-09T06:37:01.934Z,0
2018-08-09T06:38:02.572Z,0
2018-08-09T06:39:03.156Z,0
2018-08-09T06:40:03.740Z,0
2018-08-09T06:41:04.521Z,0
2018-08-09T06:42:05.101Z,0
2018-08-09T06:43:05.683Z,0
2018-08-09T06:44:06.263Z,0
2018-08-09T06:45:06.850Z,0
2018-08-09T06:46:07.435Z,0
2018-08-09T06:47:08.021Z,0
2018-08-09T06:48:08.600Z,0
2018-08-09T06:49:09.184Z,0
2018-08-09T06:50:09.768Z,0
2018-08-09T06:51:10.402Z,0
2018-08-09T06:52:10.989Z,0
2018-08-09T06:53:11.571Z,0
2018-08-09T06:54:12.151Z,0
2018-08-09T06:55:12.738Z,0
2018-08-09T06:56:13.372Z,0
2018-08-09T06:57:13.952Z,0
2018-08-09T06:58:14.535Z,0
2018-08-09T06:59:15.175Z,0
2018-08-09T07:00:15.755Z,0
2018-08-09T07:01:16.390Z,0
2018-08-09T07:02:16.973Z,0
2018-08-09T07:03:17.559Z,0
2018-08-09T07:04:18.185Z,0
2018-08-09T07:05:18.812Z,0
2018-08-09T07:06:19.399Z,0
2018-08-09T07:07:20.026Z,0
2018-08-09T07:08:20.612Z,0
2018-08-09T07:09:21.195Z,0
2018-08-09T07:10:21.826Z,0
2018-08-09T07:11:22.413Z,0
2018-08-09T07:12:22.995Z,0
2018-08-09T07:13:23.578Z,0
2018-08-09T07:14:24.213Z,0
2018-08-09T07:15:24.852Z,0
2018-08-09T07:16:25.481Z,0
2018-08-09T07:17:26.104Z,0
2018-08-09T07:18:26.692Z,0
2018-08-09T07:19:27.276Z,0
2018-08-09T07:20:27.935Z,0
2018-08-09T07:21:28.448Z,0
2018-08-09T07:22:29.034Z,0
2018-08-09T07:23:29.622Z,0
2018-08-09T07:24:30.199Z,0
2018-08-09T07:25:30.788Z,4
2018-08-09T07:26:31.487Z,4
2018-08-09T07:27:32.007Z,4
2018-08-09T07:28:32.589Z,4
2018-08-09T07:29:33.175Z,4
2018-08-09T07:30:33.816Z,4
2018-08-09T07:31:34.444Z,4
2018-08-09T07:32:35.024Z,4
2018-08-09T07:33:35.604Z,4
2018-08-09T07:34:36.240Z,4
2018-08-09T07:35:36.824Z,4
2018-08-09T07:36:37.467Z,4
2018-08-09T07:37:38.042Z,4
2018-08-09T07:38:38.625Z,4
2018-08-09T07:39:39.265Z,4
2018-08-09T07:40:39.842Z,4
2018-08-09T07:41:40.425Z,4
2018-08-09T07:42:41.003Z,4
2018-08-09T07:43:41.646Z,4
2018-08-09T07:44:42.219Z,4
2018-08-09T07:45:42.803Z,4
2018-08-09T07:46:43.435Z,4
2018-08-09T07:47:44.016Z,4
2018-08-09T07:48:44.621Z,4
2018-08-09T07:49:45.186Z,0
2018-08-09T07:50:45.772Z,0
2018-08-09T07:51:46.355Z,0
2018-08-09T07:52:46.940Z,0
2018-08-09T07:53:47.571Z,4
2018-08-09T07:54:48.154Z,0
2018-08-09T07:55:48.739Z,4
2018-08-09T07:56:49.326Z,0
2018-08-09T07:57:49.922Z,4
2018-08-09T07:58:50.551Z,0
2018-08-09T07:59:51.136Z,0
2018-08-09T08:00:51.753Z,4
2018-08-09T08:01:52.360Z,4
2018-08-09T08:02:52.996Z,4
2018-08-09T08:03:53.579Z,4
2018-08-09T08:04:54.168Z,4
2018-08-09T08:05:54.867Z,4
2018-08-09T08:06:55.331Z,4
2018-08-09T08:07:55.917Z,4
2018-08-09T08:08:56.508Z,4
2018-08-09T08:09:57.183Z,4
2018-08-09T08:10:57.772Z,4
2018-08-09T08:11:58.360Z,4
2018-08-09T08:12:58.963Z,4
2018-08-09T08:13:59.568Z,4
2018-08-09T08:15:00.163Z,4
2018-08-09T08:16:00.746Z,4
2018-08-09T08:17:01.323Z,4
2018-08-09T08:18:01.908Z,4
2018-08-09T08:19:02.545Z,4
2018-08-09T08:20:03.132Z,0
2018-08-09T08:21:03.716Z,0
2018-08-09T08:22:04.352Z,4
2018-08-09T08:23:04.937Z,4
2018-08-09T08:24:05.515Z,4
2018-08-09T08:25:06.154Z,4
2018-08-09T08:26:06.739Z,4
2018-08-09T08:27:07.373Z,0
2018-08-09T08:28:07.954Z,4
2018-08-09T08:29:08.538Z,4
2018-08-09T08:30:09.127Z,0
2018-08-09T08:31:09.712Z,0
2018-08-09T08:32:10.298Z,4
2018-08-09T08:33:10.884Z,4
2018-08-09T08:34:11.469Z,4
2018-08-09T08:35:12.055Z,4
2018-08-09T08:36:12.635Z,4
2018-08-09T08:37:13.229Z,4
2018-08-09T08:38:13.811Z,4
2018-08-09T08:39:14.397Z,4
2018-08-09T08:40:15.033Z,0
2018-08-09T08:41:15.617Z,0
2018-08-09T08:42:16.248Z,4
2018-08-09T08:43:16.885Z,4
2018-08-09T08:44:17.508Z,4
2018-08-09T08:45:18.098Z,4
2018-08-09T08:46:18.674Z,4
2018-08-09T08:47:19.315Z,4
2018-08-09T08:48:19.850Z,4
2018-08-09T08:49:20.431Z,4
2018-08-09T08:50:21.013Z,4
2018-08-09T08:51:21.598Z,4
2018-08-09T08:52:22.240Z,4
2018-08-09T08:53:22.814Z,4
2018-08-09T08:54:23.399Z,4
2018-08-09T08:55:23.979Z,4
2018-08-09T08:56:24.562Z,4
2018-08-09T08:57:25.149Z,4
2018-08-09T08:58:25.736Z,4
2018-08-09T08:59:26.335Z,4
2018-08-09T09:00:26.913Z,4
2018-08-09T09:01:27.569Z,4
2018-08-09T09:02:28.122Z,8
2018-08-09T09:03:28.707Z,8
2018-08-09T09:04:29.423Z,8
2018-08-09T09:05:29.933Z,8
2018-08-09T09:06:30.518Z,8
2018-08-09T09:07:31.095Z,4
2018-08-09T09:08:31.733Z,4
2018-08-09T09:09:32.313Z,4
2018-08-09T09:10:32.896Z,4
2018-08-09T09:11:33.474Z,4
2018-08-09T09:12:34.065Z,4
2018-08-09T09:13:34.671Z,4
2018-08-09T09:14:35.236Z,4
2018-08-09T09:15:35.822Z,8
2018-08-09T09:16:36.407Z,8
2018-08-09T09:17:36.991Z,8
2018-08-09T09:18:37.573Z,8
2018-08-09T09:19:38.158Z,8
2018-08-09T09:20:38.744Z,8
2018-08-09T09:21:39.331Z,8
2018-08-09T09:22:39.966Z,8
2018-08-09T09:23:40.604Z,4
2018-08-09T09:24:41.233Z,4
2018-08-09T09:25:41.815Z,8
2018-08-09T09:26:42.400Z,8
2018-08-09T09:27:42.985Z,8
2018-08-09T09:28:43.568Z,8
2018-08-09T09:29:44.149Z,8
2018-08-09T09:30:44.726Z,8
2018-08-09T09:31:45.306Z,8
2018-08-09T09:32:45.887Z,8
2018-08-09T09:33:46.469Z,8
2018-08-09T09:34:47.056Z,8
2018-08-09T09:35:47.685Z,12
2018-08-09T09:36:48.267Z,12
2018-08-09T09:37:48.856Z,8
2018-08-09T09:38:49.486Z,8
2018-08-09T09:39:50.113Z,8
2018-08-09T09:40:50.693Z,8
2018-08-09T09:41:51.326Z,8
2018-08-09T09:42:51.909Z,8
2018-08-09T09:43:52.483Z,12
2018-08-09T09:44:53.076Z,12
2018-08-09T09:45:53.653Z,12
2018-08-09T09:46:54.241Z,12
2018-08-09T09:47:54.827Z,12
2018-08-09T09:48:55.409Z,12
2018-08-09T09:49:55.999Z,8
2018-08-09T09:50:56.579Z,8
2018-08-09T09:51:57.167Z,8
2018-08-09T09:52:57.754Z,8
2018-08-09T09:53:58.341Z,12
2018-08-09T09:54:59.043Z,12
2018-08-09T09:55:59.599Z,12
2018-08-09T09:57:00.146Z,12
2018-08-09T09:58:00.784Z,12
2018-08-09T09:59:01.364Z,12
2018-08-09T10:00:01.947Z,12
2018-08-09T10:01:02.536Z,12
2018-08-09T10:02:03.182Z,12
2018-08-09T10:03:03.910Z,16
2018-08-09T10:04:04.493Z,12
2018-08-09T10:05:05.083Z,12
2018-08-09T10:06:05.665Z,12
2018-08-09T10:07:06.290Z,12
2018-08-09T10:08:06.836Z,12
2018-08-09T10:09:07.425Z,12
2018-08-09T10:10:08.009Z,12
2018-08-09T10:11:08.598Z,16
2018-08-09T10:12:09.232Z,16
2018-08-09T10:13:09.818Z,16
2018-08-09T10:14:10.447Z,16
2018-08-09T10:15:11.089Z,12
2018-08-09T10:16:11.711Z,12
2018-08-09T10:17:12.309Z,12
2018-08-09T10:18:13.045Z,16
2018-08-09T10:19:13.626Z,16
2018-08-09T10:20:14.217Z,16
2018-08-09T10:21:14.803Z,16
2018-08-09T10:22:15.383Z,16
2018-08-09T10:23:15.972Z,12
2018-08-09T10:24:16.561Z,16
2018-08-09T10:25:17.148Z,16
2018-08-09T10:26:17.733Z,16
2018-08-09T10:27:18.324Z,16
2018-08-09T10:28:18.960Z,16
2018-08-09T10:29:19.548Z,16
2018-08-09T10:30:20.232Z,20
2018-08-09T10:31:20.817Z,16
2018-08-09T10:32:21.457Z,16
2018-08-09T10:33:22.044Z,16
2018-08-09T10:34:22.629Z,20
2018-08-09T10:35:23.219Z,20
2018-08-09T10:36:23.855Z,20
2018-08-09T10:37:24.444Z,20
2018-08-09T10:38:25.025Z,16
2018-08-09T10:39:25.609Z,20
2018-08-09T10:40:26.193Z,20
2018-08-09T10:41:26.783Z,20
2018-08-09T10:42:27.365Z,20
2018-08-09T10:43:27.949Z,20
2018-08-09T10:44:28.535Z,24
2018-08-09T10:45:29.215Z,20
2018-08-09T10:46:29.845Z,20
2018-08-09T10:47:30.435Z,20
2018-08-09T10:48:31.021Z,20
2018-08-09T10:49:31.609Z,24
2018-08-09T10:50:32.197Z,24
2018-08-09T10:51:32.833Z,24
2018-08-09T10:52:33.470Z,24
2018-08-09T10:53:34.051Z,20
2018-08-09T10:54:34.637Z,24
2018-08-09T10:55:35.227Z,24
2018-08-09T10:56:35.805Z,24
2018-08-09T10:57:36.396Z,24
2018-08-09T10:58:36.981Z,24
2018-08-09T10:59:37.565Z,24
2018-08-09T11:00:38.202Z,24
2018-08-09T11:01:38.793Z,24
2018-08-09T11:02:39.370Z,24
2018-08-09T11:03:40.008Z,24
2018-08-09T11:04:40.596Z,28
2018-08-09T11:05:41.185Z,28
2018-08-09T11:06:41.822Z,28
2018-08-09T11:07:42.412Z,24
2018-08-09T11:08:43.044Z,24
2018-08-09T11:09:43.629Z,24
2018-08-09T11:10:44.210Z,28
2018-08-09T11:11:44.796Z,28
2018-08-09T11:12:45.383Z,28
2018-08-09T11:13:45.965Z,28
2018-08-09T11:14:46.554Z,24
2018-08-09T11:15:47.140Z,28
2018-08-09T11:16:47.796Z,28
2018-08-09T11:17:48.403Z,28
2018-08-09T11:18:48.989Z,28
2018-08-09T11:19:49.577Z,28
2018-08-09T11:20:50.162Z,32
2018-08-09T11:21:50.752Z,28
2018-08-09T11:22:51.337Z,28
2018-08-09T11:23:51.932Z,28
2018-08-09T11:24:52.560Z,28
2018-08-09T11:25:53.147Z,32
2018-08-09T11:26:53.727Z,32
2018-08-09T11:27:54.319Z,32
2018-08-09T11:28:54.905Z,32
2018-08-09T11:29:55.543Z,28
2018-08-09T11:30:56.224Z,28
2018-08-09T11:31:56.812Z,32
2018-08-09T11:32:57.501Z,32
2018-08-09T11:33:58.097Z,32
2018-08-09T11:34:58.673Z,32
2018-08-09T11:35:59.362Z,32
2018-08-09T11:36:59.948Z,36
2018-08-09T11:38:00.537Z,32
2018-08-09T11:39:01.125Z,32
2018-08-09T11:40:01.710Z,32
2018-08-09T11:41:02.298Z,32
2018-08-09T11:42:02.927Z,32
2018-08-09T11:43:03.555Z,36
2018-08-09T11:44:04.103Z,36
2018-08-09T11:45:04.693Z,36
2018-08-09T11:46:05.280Z,32
2018-08-09T11:47:05.867Z,32
2018-08-09T11:48:06.456Z,32
2018-08-09T11:49:07.053Z,36
2018-08-09T11:50:07.680Z,36
2018-08-09T11:51:08.319Z,36
2018-08-09T11:52:08.951Z,36
2018-08-09T11:53:09.537Z,36
2018-08-09T11:54:10.125Z,36
2018-08-09T11:55:10.708Z,36
2018-08-09T11:56:11.308Z,36
2018-08-09T11:57:11.964Z,36
2018-08-09T11:58:12.503Z,36
2018-08-09T11:59:13.095Z,36
2018-08-09T12:00:13.678Z,36
2018-08-09T12:01:14.269Z,36
2018-08-09T12:02:14.853Z,36
2018-08-09T12:03:15.451Z,40
2018-08-09T12:04:16.026Z,40
2018-08-09T12:05:16.607Z,40
2018-08-09T12:06:17.198Z,36
2018-08-09T12:07:17.831Z,36
2018-08-09T12:08:18.461Z,36
2018-08-09T12:09:19.140Z,36
2018-08-09T12:10:19.680Z,36
2018-08-09T12:11:20.263Z,40
2018-08-09T12:12:20.899Z,40
2018-08-09T12:13:21.491Z,40
2018-08-09T12:14:22.125Z,40
2018-08-09T12:15:22.711Z,40
2018-08-09T12:16:23.299Z,40
2018-08-09T12:17:23.886Z,36
2018-08-09T12:18:24.471Z,36
2018-08-09T12:19:25.055Z,40
2018-08-09T12:20:25.645Z,40
2018-08-09T12:21:26.229Z,40
2018-08-09T12:22:26.863Z,40
2018-08-09T12:23:27.495Z,40
2018-08-09T12:24:28.136Z,40
2018-08-09T12:25:28.687Z,40
2018-08-09T12:26:29.307Z,40
2018-08-09T12:27:29.942Z,40
2018-08-09T12:28:30.573Z,44
2018-08-09T12:29:31.205Z,40
2018-08-09T12:30:31.799Z,40
2018-08-09T12:31:32.382Z,40
2018-08-09T12:32:32.969Z,40
2018-08-09T12:33:33.550Z,40
2018-08-09T12:34:34.140Z,40
2018-08-09T12:35:34.722Z,40
2018-08-09T12:36:35.327Z,40
2018-08-09T12:37:35.893Z,40
2018-08-09T12:38:36.481Z,44
2018-08-09T12:39:37.068Z,44
2018-08-09T12:40:37.701Z,44
2018-08-09T12:41:38.289Z,44
2018-08-09T12:42:38.870Z,44
2018-08-09T12:43:39.512Z,44
2018-08-09T12:44:40.100Z,40
2018-08-09T12:45:40.681Z,40
2018-08-09T12:46:41.270Z,40
2018-08-09T12:47:41.903Z,44
2018-08-09T12:48:42.489Z,44
2018-08-09T12:49:43.070Z,44
2018-08-09T12:50:43.690Z,44
2018-08-09T12:51:44.239Z,44
2018-08-09T12:52:44.832Z,44
2018-08-09T12:53:45.419Z,44
2018-08-09T12:54:46.051Z,44
2018-08-09T12:55:46.635Z,44
2018-08-09T12:56:47.226Z,44
2018-08-09T12:57:47.814Z,44
2018-08-09T12:58:48.446Z,44
2018-08-09T12:59:49.040Z,44
2018-08-09T13:00:49.622Z,44
2018-08-09T13:01:50.205Z,44
2018-08-09T13:02:50.837Z,44
2018-08-09T13:03:51.426Z,44
2018-08-09T13:04:52.055Z,44
2018-08-09T13:05:52.674Z,44
2018-08-09T13:06:53.225Z,44
2018-08-09T13:07:53.810Z,44
2018-08-09T13:08:54.391Z,44
2018-08-09T13:09:54.979Z,44
2018-08-09T13:10:55.567Z,48
2018-08-09T13:11:56.150Z,48
2018-08-09T13:12:56.791Z,48
2018-08-09T13:13:57.372Z,48
2018-08-09T13:14:57.961Z,48
2018-08-09T13:15:58.549Z,44
2018-08-09T13:16:59.199Z,44
2018-08-09T13:17:59.768Z,44
2018-08-09T13:19:00.359Z,44
2018-08-09T13:20:00.941Z,44
2018-08-09T13:21:01.531Z,44
2018-08-09T13:22:02.116Z,44
2018-08-09T13:23:02.704Z,48
2018-08-09T13:24:03.286Z,44
2018-08-09T13:25:03.879Z,48
2018-08-09T13:26:04.467Z,48
2018-08-09T13:27:05.049Z,48
2018-08-09T13:28:05.689Z,48
2018-08-09T13:29:06.278Z,48
2018-08-09T13:30:06.910Z,48
2018-08-09T13:31:07.492Z,48
2018-08-09T13:32:08.077Z,48
2018-08-09T13:33:08.665Z,48
2018-08-09T13:34:09.297Z,48
2018-08-09T13:35:09.887Z,48
2018-08-09T13:36:10.472Z,48
2018-08-09T13:37:11.108Z,44
2018-08-09T13:38:11.695Z,48
2018-08-09T13:39:12.282Z,44
2018-08-09T13:40:12.869Z,48
2018-08-09T13:41:13.453Z,48
2018-08-09T13:42:14.036Z,48
2018-08-09T13:43:14.672Z,48
2018-08-09T13:44:15.255Z,48
2018-08-09T13:45:15.899Z,48
2018-08-09T13:46:16.568Z,48
2018-08-09T13:47:17.146Z,48
2018-08-09T13:48:17.736Z,48
2018-08-09T13:49:18.325Z,48
2018-08-09T13:50:18.909Z,48
2018-08-09T13:51:19.647Z,48
2018-08-09T13:52:20.233Z,48
2018-08-09T13:53:20.818Z,48
2018-08-09T13:54:21.405Z,48
2018-08-09T13:55:21.988Z,48
2018-08-09T13:56:22.572Z,48
2018-08-09T13:57:23.152Z,48
2018-08-09T13:58:23.758Z,48
2018-08-09T13:59:24.372Z,48
2018-08-09T14:00:25.009Z,48
2018-08-09T14:01:25.601Z,48
2018-08-09T14:02:26.186Z,48
2018-08-09T14:03:26.770Z,48
2018-08-09T14:04:27.353Z,48
2018-08-09T14:05:27.937Z,48
2018-08-09T14:06:33.573Z,48
2018-08-09T14:07:34.158Z,48
2018-08-09T14:08:34.748Z,48
2018-08-09T14:09:35.329Z,48
2018-08-09T14:10:35.975Z,48
2018-08-09T14:11:36.502Z,48
2018-08-09T14:12:37.085Z,48
2018-08-09T14:13:37.721Z,48
2018-08-09T14:14:38.309Z,48
2018-08-09T14:15:38.946Z,48
2018-08-09T14:16:39.527Z,48
2018-08-09T14:17:40.128Z,48
2018-08-09T14:18:40.696Z,48
2018-08-09T14:19:41.285Z,48
2018-08-09T14:20:41.871Z,48
2018-08-09T14:21:42.454Z,48
2018-08-09T14:22:43.044Z,48
2018-08-09T14:23:43.674Z,44
2018-08-09T14:24:44.403Z,44
2018-08-09T14:25:44.845Z,44
2018-08-09T14:26:45.430Z,44
2018-08-09T14:27:46.020Z,44
2018-08-09T14:28:46.608Z,48
2018-08-09T14:29:47.203Z,44
2018-08-09T14:30:47.835Z,44
2018-08-09T14:31:48.445Z,48
2018-08-09T14:32:49.012Z,48
2018-08-09T14:33:49.597Z,48
2018-08-09T14:34:50.233Z,48
2018-08-09T14:35:50.813Z,48
2018-08-09T14:36:51.403Z,48
2018-08-09T14:37:51.992Z,48
2018-08-09T14:38:52.631Z,48
2018-08-09T14:39:53.219Z,48
2018-08-09T14:40:53.889Z,48
2018-08-09T14:41:54.514Z,48
2018-08-09T14:42:55.059Z,48
2018-08-09T14:43:55.641Z,48
2018-08-09T14:44:56.223Z,48